sensor_id;sensor_type;location;lat;lon;timestamp;P1;durP1;ratioP1;P2;durP2;ratioP2
635;SDS011;302;50.206;8.196;2023-03-24T00:01:49;5.22;;;4.72;;
635;SDS011;302;50.206;8.196;2023-03-24T00:04:14;4.90;;;4.20;;
635;SDS011;302;50.206;8.196;2023-03-24T00:06:40;4.37;;;3.97;;
635;SDS011;302;50.206;8.196;2023-03-24T00:09:07;7.32;;;5.75;;
635;SDS011;302;50.206;8.196;2023-03-24T00:11:32;5.73;;;5.23;;
635;SDS011;302;50.206;8.196;2023-03-24T00:13:58;5.90;;;5.40;;
635;SDS011;302;50.206;8.196;2023-03-24T00:16:23;6.17;;;5.60;;
635;SDS011;302;50.206;8.196;2023-03-24T00:18:50;6.80;;;6.03;;
635;SDS011;302;50.206;8.196;2023-03-24T00:21:17;7.93;;;7.13;;
635;SDS011;302;50.206;8.196;2023-03-24T00:23:45;6.70;;;6.10;;
635;SDS011;302;50.206;8.196;2023-03-24T00:26:12;7.57;;;6.65;;
635;SDS011;302;50.206;8.196;2023-03-24T00:28:44;7.38;;;6.68;;
635;SDS011;302;50.206;8.196;2023-03-24T00:31:10;7.28;;;6.57;;
635;SDS011;302;50.206;8.196;2023-03-24T00:33:38;7.30;;;6.60;;
635;SDS011;302;50.206;8.196;2023-03-24T00:36:05;8.43;;;6.30;;
635;SDS011;302;50.206;8.196;2023-03-24T00:38:31;6.13;;;5.53;;
635;SDS011;302;50.206;8.196;2023-03-24T00:40:58;6.18;;;5.60;;
635;SDS011;302;50.206;8.196;2023-03-24T00:43:23;6.20;;;5.60;;
635;SDS011;302;50.206;8.196;2023-03-24T00:45:49;9.00;;;5.90;;
635;SDS011;302;50.206;8.196;2023-03-24T00:48:16;4.97;;;4.57;;
635;SDS011;302;50.206;8.196;2023-03-24T00:50:46;5.50;;;5.10;;
635;SDS011;302;50.206;8.196;2023-03-24T00:53:12;6.10;;;5.50;;
635;SDS011;302;50.206;8.196;2023-03-24T00:55:39;8.30;;;7.50;;
635;SDS011;302;50.206;8.196;2023-03-24T00:58:06;7.50;;;6.80;;
635;SDS011;302;50.206;8.196;2023-03-24T01:00:31;7.50;;;6.83;;
635;SDS011;302;50.206;8.196;2023-03-24T01:02:56;7.40;;;6.50;;
635;SDS011;302;50.206;8.196;2023-03-24T01:05:28;7.20;;;6.50;;
635;SDS011;302;50.206;8.196;2023-03-24T01:07:57;6.80;;;6.05;;
635;SDS011;302;50.206;8.196;2023-03-24T01:10:23;7.85;;;5.95;;
635;SDS011;302;50.206;8.196;2023-03-24T01:12:50;5.97;;;5.47;;
635;SDS011;302;50.206;8.196;2023-03-24T01:15:17;6.85;;;6.22;;
635;SDS011;302;50.206;8.196;2023-03-24T01:17:42;5.60;;;5.13;;
635;SDS011;302;50.206;8.196;2023-03-24T01:20:08;5.87;;;5.30;;
635;SDS011;302;50.206;8.196;2023-03-24T01:22:35;5.80;;;5.30;;
635;SDS011;302;50.206;8.196;2023-03-24T01:25:04;6.05;;;5.50;;
635;SDS011;302;50.206;8.196;2023-03-24T01:27:29;5.90;;;5.30;;
635;SDS011;302;50.206;8.196;2023-03-24T01:29:58;6.63;;;5.90;;
635;SDS011;302;50.206;8.196;2023-03-24T01:32:24;6.70;;;5.28;;
635;SDS011;302;50.206;8.196;2023-03-24T01:34:49;6.23;;;5.63;;
635;SDS011;302;50.206;8.196;2023-03-24T01:37:14;6.70;;;6.00;;
635;SDS011;302;50.206;8.196;2023-03-24T01:39:40;5.83;;;5.23;;
635;SDS011;302;50.206;8.196;2023-03-24T01:42:05;5.87;;;5.27;;
635;SDS011;302;50.206;8.196;2023-03-24T01:44:32;5.60;;;5.20;;
635;SDS011;302;50.206;8.196;2023-03-24T01:46:58;6.05;;;5.30;;
635;SDS011;302;50.206;8.196;2023-03-24T01:49:24;5.57;;;5.07;;
635;SDS011;302;50.206;8.196;2023-03-24T01:51:51;5.65;;;5.13;;
635;SDS011;302;50.206;8.196;2023-03-24T01:54:18;5.47;;;4.97;;
635;SDS011;302;50.206;8.196;2023-03-24T01:56:45;5.65;;;4.97;;
635;SDS011;302;50.206;8.196;2023-03-24T01:59:14;5.35;;;4.80;;
635;SDS011;302;50.206;8.196;2023-03-24T02:01:41;5.35;;;4.85;;
635;SDS011;302;50.206;8.196;2023-03-24T02:04:06;6.07;;;5.10;;
635;SDS011;302;50.206;8.196;2023-03-24T02:06:33;4.97;;;4.30;;
635;SDS011;302;50.206;8.196;2023-03-24T02:08:59;5.60;;;5.00;;
635;SDS011;302;50.206;8.196;2023-03-24T02:11:26;6.72;;;5.15;;
635;SDS011;302;50.206;8.196;2023-03-24T02:13:52;5.15;;;4.65;;
635;SDS011;302;50.206;8.196;2023-03-24T02:16:27;5.30;;;4.50;;
635;SDS011;302;50.206;8.196;2023-03-24T02:24:03;5.13;;;4.68;;
635;SDS011;302;50.206;8.196;2023-03-24T02:29:23;5.63;;;4.53;;
635;SDS011;302;50.206;8.196;2023-03-24T02:37:32;4.90;;;4.40;;
635;SDS011;302;50.206;8.196;2023-03-24T02:40:06;5.65;;;4.00;;
635;SDS011;302;50.206;8.196;2023-03-24T02:47:55;5.18;;;4.78;;
635;SDS011;302;50.206;8.196;2023-03-24T02:50:29;6.57;;;4.38;;
635;SDS011;302;50.206;8.196;2023-03-24T02:53:57;4.22;;;3.83;;
635;SDS011;302;50.206;8.196;2023-03-24T02:56:24;4.28;;;3.88;;
635;SDS011;302;50.206;8.196;2023-03-24T02:58:46;6.63;;;4.25;;
635;SDS011;302;50.206;8.196;2023-03-24T03:01:20;5.15;;;4.65;;
635;SDS011;302;50.206;8.196;2023-03-24T03:03:55;4.72;;;4.32;;
635;SDS011;302;50.206;8.196;2023-03-24T03:06:23;4.95;;;4.30;;
635;SDS011;302;50.206;8.196;2023-03-24T03:08:51;6.60;;;5.63;;
635;SDS011;302;50.206;8.196;2023-03-24T03:11:17;5.35;;;4.85;;
635;SDS011;302;50.206;8.196;2023-03-24T03:13:53;4.50;;;4.10;;
635;SDS011;302;50.206;8.196;2023-03-24T03:16:21;4.88;;;4.45;;
635;SDS011;302;50.206;8.196;2023-03-24T03:18:50;5.53;;;5.03;;
635;SDS011;302;50.206;8.196;2023-03-24T03:21:19;6.25;;;4.85;;
635;SDS011;302;50.206;8.196;2023-03-24T03:23:50;6.53;;;5.88;;
635;SDS011;302;50.206;8.196;2023-03-24T03:26:17;5.82;;;5.22;;
635;SDS011;302;50.206;8.196;2023-03-24T03:28:43;5.43;;;4.82;;
635;SDS011;302;50.206;8.196;2023-03-24T03:31:14;5.03;;;4.60;;
635;SDS011;302;50.206;8.196;2023-03-24T03:33:45;6.40;;;5.35;;
635;SDS011;302;50.206;8.196;2023-03-24T03:41:04;6.60;;;5.30;;
635;SDS011;302;50.206;8.196;2023-03-24T03:43:30;6.00;;;5.30;;
635;SDS011;302;50.206;8.196;2023-03-24T03:45:56;5.88;;;5.10;;
635;SDS011;302;50.206;8.196;2023-03-24T03:48:22;6.78;;;5.30;;
635;SDS011;302;50.206;8.196;2023-03-24T03:50:50;6.68;;;5.97;;
635;SDS011;302;50.206;8.196;2023-03-24T03:53:16;6.20;;;5.60;;
635;SDS011;302;50.206;8.196;2023-03-24T03:55:43;7.85;;;6.30;;
635;SDS011;302;50.206;8.196;2023-03-24T03:58:09;6.70;;;6.00;;
635;SDS011;302;50.206;8.196;2023-03-24T04:00:34;8.30;;;6.10;;
635;SDS011;302;50.206;8.196;2023-03-24T04:03:06;5.95;;;5.45;;
635;SDS011;302;50.206;8.196;2023-03-24T04:05:35;6.22;;;5.63;;
635;SDS011;302;50.206;8.196;2023-03-24T04:08:11;5.95;;;5.35;;
635;SDS011;302;50.206;8.196;2023-03-24T04:13:32;6.72;;;5.30;;
635;SDS011;302;50.206;8.196;2023-03-24T04:18:26;7.80;;;6.50;;
635;SDS011;302;50.206;8.196;2023-03-24T04:26:23;7.25;;;6.32;;
635;SDS011;302;50.206;8.196;2023-03-24T04:31:20;6.50;;;5.35;;
635;SDS011;302;50.206;8.196;2023-03-24T04:33:59;5.95;;;5.35;;
635;SDS011;302;50.206;8.196;2023-03-24T04:36:33;5.82;;;5.32;;
635;SDS011;302;50.206;8.196;2023-03-24T04:39:07;5.60;;;5.00;;
635;SDS011;302;50.206;8.196;2023-03-24T04:41:33;6.60;;;5.90;;
635;SDS011;302;50.206;8.196;2023-03-24T04:44:01;5.20;;;4.70;;
635;SDS011;302;50.206;8.196;2023-03-24T04:46:27;5.93;;;5.10;;
635;SDS011;302;50.206;8.196;2023-03-24T04:48:52;5.63;;;5.03;;
635;SDS011;302;50.206;8.196;2023-03-24T04:51:17;6.07;;;5.47;;
635;SDS011;302;50.206;8.196;2023-03-24T04:53:43;5.70;;;5.20;;
635;SDS011;302;50.206;8.196;2023-03-24T04:58:34;8.00;;;5.20;;
635;SDS011;302;50.206;8.196;2023-03-24T05:00:59;4.00;;;3.60;;
635;SDS011;302;50.206;8.196;2023-03-24T05:03:24;3.33;;;3.03;;
635;SDS011;302;50.206;8.196;2023-03-24T05:05:50;3.70;;;3.40;;
635;SDS011;302;50.206;8.196;2023-03-24T05:08:16;4.28;;;3.95;;
635;SDS011;302;50.206;8.196;2023-03-24T05:10:42;4.93;;;4.53;;
635;SDS011;302;50.206;8.196;2023-03-24T05:13:07;3.30;;;3.00;;
635;SDS011;302;50.206;8.196;2023-03-24T05:15:33;3.70;;;3.40;;
635;SDS011;302;50.206;8.196;2023-03-24T05:17:58;3.73;;;3.43;;
635;SDS011;302;50.206;8.196;2023-03-24T05:20:23;3.50;;;3.20;;
635;SDS011;302;50.206;8.196;2023-03-24T05:22:49;3.73;;;3.10;;
635;SDS011;302;50.206;8.196;2023-03-24T05:25:14;3.03;;;2.80;;
635;SDS011;302;50.206;8.196;2023-03-24T05:27:40;3.13;;;2.90;;
635;SDS011;302;50.206;8.196;2023-03-24T05:30:05;3.70;;;3.27;;
635;SDS011;302;50.206;8.196;2023-03-24T05:32:30;4.33;;;2.70;;
635;SDS011;302;50.206;8.196;2023-03-24T05:34:56;3.10;;;2.80;;
635;SDS011;302;50.206;8.196;2023-03-24T05:37:21;2.70;;;2.50;;
635;SDS011;302;50.206;8.196;2023-03-24T05:39:46;2.97;;;2.77;;
635;SDS011;302;50.206;8.196;2023-03-24T05:42:11;3.07;;;2.87;;
635;SDS011;302;50.206;8.196;2023-03-24T05:44:36;2.70;;;2.50;;
635;SDS011;302;50.206;8.196;2023-03-24T05:47:02;3.07;;;2.87;;
635;SDS011;302;50.206;8.196;2023-03-24T05:49:30;3.08;;;2.70;;
635;SDS011;302;50.206;8.196;2023-03-24T05:51:55;3.13;;;2.60;;
635;SDS011;302;50.206;8.196;2023-03-24T05:54:20;2.80;;;2.50;;
635;SDS011;302;50.206;8.196;2023-03-24T05:56:46;2.60;;;2.40;;
635;SDS011;302;50.206;8.196;2023-03-24T05:59:11;3.35;;;3.05;;
635;SDS011;302;50.206;8.196;2023-03-24T06:01:36;3.05;;;2.75;;
635;SDS011;302;50.206;8.196;2023-03-24T06:04:02;3.03;;;2.67;;
635;SDS011;302;50.206;8.196;2023-03-24T06:06:27;3.50;;;2.43;;
635;SDS011;302;50.206;8.196;2023-03-24T06:08:52;2.47;;;2.27;;
635;SDS011;302;50.206;8.196;2023-03-24T06:11:18;2.97;;;2.67;;
635;SDS011;302;50.206;8.196;2023-03-24T06:13:44;2.47;;;2.20;;
635;SDS011;302;50.206;8.196;2023-03-24T06:16:09;2.47;;;2.27;;
635;SDS011;302;50.206;8.196;2023-03-24T06:18:34;2.30;;;2.03;;
635;SDS011;302;50.206;8.196;2023-03-24T06:20:59;2.60;;;2.40;;
635;SDS011;302;50.206;8.196;2023-03-24T06:23:25;2.00;;;1.80;;
635;SDS011;302;50.206;8.196;2023-03-24T06:25:52;2.30;;;2.10;;
635;SDS011;302;50.206;8.196;2023-03-24T06:28:18;2.08;;;1.88;;
635;SDS011;302;50.206;8.196;2023-03-24T06:30:43;1.73;;;1.63;;
635;SDS011;302;50.206;8.196;2023-03-24T06:33:09;1.70;;;1.60;;
635;SDS011;302;50.206;8.196;2023-03-24T06:35:35;1.90;;;1.80;;
635;SDS011;302;50.206;8.196;2023-03-24T06:38:00;2.00;;;1.90;;
635;SDS011;302;50.206;8.196;2023-03-24T06:40:25;2.28;;;2.05;;
635;SDS011;302;50.206;8.196;2023-03-24T06:42:51;2.17;;;1.97;;
635;SDS011;302;50.206;8.196;2023-03-24T06:45:16;2.30;;;2.10;;
635;SDS011;302;50.206;8.196;2023-03-24T06:47:41;2.63;;;2.43;;
635;SDS011;302;50.206;8.196;2023-03-24T06:50:06;3.15;;;2.75;;
635;SDS011;302;50.206;8.196;2023-03-24T06:52:32;2.83;;;2.63;;
635;SDS011;302;50.206;8.196;2023-03-24T06:54:57;2.30;;;2.10;;
635;SDS011;302;50.206;8.196;2023-03-24T06:57:23;2.83;;;2.43;;
635;SDS011;302;50.206;8.196;2023-03-24T06:59:48;3.20;;;2.90;;
635;SDS011;302;50.206;8.196;2023-03-24T07:02:13;2.97;;;2.77;;
635;SDS011;302;50.206;8.196;2023-03-24T07:04:38;3.53;;;3.33;;
635;SDS011;302;50.206;8.196;2023-03-24T07:07:03;3.30;;;3.00;;
635;SDS011;302;50.206;8.196;2023-03-24T07:09:28;2.30;;;2.10;;
635;SDS011;302;50.206;8.196;2023-03-24T07:11:54;3.10;;;2.80;;
635;SDS011;302;50.206;8.196;2023-03-24T07:14:19;2.37;;;2.17;;
635;SDS011;302;50.206;8.196;2023-03-24T07:16:46;2.50;;;2.30;;
635;SDS011;302;50.206;8.196;2023-03-24T07:19:11;2.30;;;2.10;;
635;SDS011;302;50.206;8.196;2023-03-24T07:21:36;1.87;;;1.77;;
635;SDS011;302;50.206;8.196;2023-03-24T07:24:01;2.30;;;2.10;;
635;SDS011;302;50.206;8.196;2023-03-24T07:26:26;1.57;;;1.43;;
635;SDS011;302;50.206;8.196;2023-03-24T07:28:51;2.63;;;1.88;;
635;SDS011;302;50.206;8.196;2023-03-24T07:31:17;1.70;;;1.60;;
635;SDS011;302;50.206;8.196;2023-03-24T07:33:42;2.73;;;1.90;;
635;SDS011;302;50.206;8.196;2023-03-24T07:36:07;1.67;;;1.57;;
635;SDS011;302;50.206;8.196;2023-03-24T07:38:33;1.67;;;1.57;;
635;SDS011;302;50.206;8.196;2023-03-24T07:40:58;2.07;;;1.77;;
635;SDS011;302;50.206;8.196;2023-03-24T07:43:24;1.80;;;1.70;;
635;SDS011;302;50.206;8.196;2023-03-24T07:45:49;1.60;;;1.50;;
635;SDS011;302;50.206;8.196;2023-03-24T07:48:14;2.50;;;2.30;;
635;SDS011;302;50.206;8.196;2023-03-24T07:50:40;2.00;;;1.90;;
635;SDS011;302;50.206;8.196;2023-03-24T07:53:05;2.45;;;2.25;;
635;SDS011;302;50.206;8.196;2023-03-24T07:55:33;2.33;;;2.13;;
635;SDS011;302;50.206;8.196;2023-03-24T07:57:58;2.33;;;2.17;;
635;SDS011;302;50.206;8.196;2023-03-24T08:00:23;2.28;;;2.08;;
635;SDS011;302;50.206;8.196;2023-03-24T08:02:49;2.40;;;2.20;;
635;SDS011;302;50.206;8.196;2023-03-24T08:05:17;2.78;;;2.58;;
635;SDS011;302;50.206;8.196;2023-03-24T08:07:43;2.60;;;2.40;;
635;SDS011;302;50.206;8.196;2023-03-24T08:10:09;2.33;;;2.23;;
635;SDS011;302;50.206;8.196;2023-03-24T08:12:35;2.75;;;2.55;;
635;SDS011;302;50.206;8.196;2023-03-24T08:15:00;3.47;;;2.60;;
635;SDS011;302;50.206;8.196;2023-03-24T08:17:25;2.73;;;2.53;;
635;SDS011;302;50.206;8.196;2023-03-24T08:19:50;4.15;;;2.80;;
635;SDS011;302;50.206;8.196;2023-03-24T08:22:16;2.90;;;2.70;;
635;SDS011;302;50.206;8.196;2023-03-24T08:24:41;2.93;;;2.73;;
635;SDS011;302;50.206;8.196;2023-03-24T08:27:06;3.00;;;2.80;;
635;SDS011;302;50.206;8.196;2023-03-24T08:29:34;2.88;;;2.67;;
635;SDS011;302;50.206;8.196;2023-03-24T08:32:00;2.50;;;2.30;;
635;SDS011;302;50.206;8.196;2023-03-24T08:34:25;3.17;;;2.97;;
635;SDS011;302;50.206;8.196;2023-03-24T08:36:51;2.60;;;2.40;;
635;SDS011;302;50.206;8.196;2023-03-24T08:39:16;2.67;;;2.47;;
635;SDS011;302;50.206;8.196;2023-03-24T08:41:41;4.77;;;3.03;;
635;SDS011;302;50.206;8.196;2023-03-24T08:44:07;2.50;;;2.30;;
635;SDS011;302;50.206;8.196;2023-03-24T08:46:32;2.60;;;2.40;;
635;SDS011;302;50.206;8.196;2023-03-24T08:48:58;2.50;;;2.27;;
635;SDS011;302;50.206;8.196;2023-03-24T08:51:24;1.80;;;1.70;;
635;SDS011;302;50.206;8.196;2023-03-24T08:53:49;4.22;;;1.90;;
635;SDS011;302;50.206;8.196;2023-03-24T08:56:17;1.90;;;1.70;;
635;SDS011;302;50.206;8.196;2023-03-24T08:58:42;1.98;;;1.80;;
635;SDS011;302;50.206;8.196;2023-03-24T09:01:07;1.88;;;0.90;;
635;SDS011;302;50.206;8.196;2023-03-24T09:03:32;1.07;;;0.93;;
635;SDS011;302;50.206;8.196;2023-03-24T09:05:59;1.02;;;0.80;;
635;SDS011;302;50.206;8.196;2023-03-24T09:08:25;1.23;;;0.80;;
635;SDS011;302;50.206;8.196;2023-03-24T09:10:50;1.10;;;0.70;;
635;SDS011;302;50.206;8.196;2023-03-24T09:13:16;1.10;;;1.00;;
635;SDS011;302;50.206;8.196;2023-03-24T09:15:44;1.60;;;1.13;;
635;SDS011;302;50.206;8.196;2023-03-24T09:18:10;1.13;;;0.68;;
635;SDS011;302;50.206;8.196;2023-03-24T09:20:35;2.25;;;0.77;;
635;SDS011;302;50.206;8.196;2023-03-24T09:23:00;1.43;;;0.90;;
635;SDS011;302;50.206;8.196;2023-03-24T09:25:25;1.73;;;1.30;;
635;SDS011;302;50.206;8.196;2023-03-24T09:27:50;2.47;;;1.87;;
635;SDS011;302;50.206;8.196;2023-03-24T09:30:16;1.70;;;1.53;;
635;SDS011;302;50.206;8.196;2023-03-24T09:32:42;3.60;;;2.90;;
635;SDS011;302;50.206;8.196;2023-03-24T09:35:08;2.37;;;2.17;;
635;SDS011;302;50.206;8.196;2023-03-24T09:37:34;1.80;;;1.70;;
635;SDS011;302;50.206;8.196;2023-03-24T09:39:59;2.27;;;1.50;;
635;SDS011;302;50.206;8.196;2023-03-24T09:42:26;2.40;;;1.70;;
635;SDS011;302;50.206;8.196;2023-03-24T09:44:56;2.03;;;1.83;;
635;SDS011;302;50.206;8.196;2023-03-24T09:47:30;1.80;;;1.70;;
635;SDS011;302;50.206;8.196;2023-03-24T09:49:59;1.98;;;1.23;;
635;SDS011;302;50.206;8.196;2023-03-24T09:52:31;1.70;;;1.10;;
635;SDS011;302;50.206;8.196;2023-03-24T09:54:58;1.35;;;0.88;;
635;SDS011;302;50.206;8.196;2023-03-24T09:59:53;1.95;;;1.00;;
635;SDS011;302;50.206;8.196;2023-03-24T10:02:20;1.83;;;1.13;;
635;SDS011;302;50.206;8.196;2023-03-24T10:04:45;1.65;;;1.20;;
635;SDS011;302;50.206;8.196;2023-03-24T10:09:35;1.05;;;0.90;;
635;SDS011;302;50.206;8.196;2023-03-24T10:14:40;1.40;;;1.15;;
635;SDS011;302;50.206;8.196;2023-03-24T10:22:20;1.05;;;0.80;;
635;SDS011;302;50.206;8.196;2023-03-24T10:24:52;0.95;;;0.75;;
635;SDS011;302;50.206;8.196;2023-03-24T10:29:45;1.60;;;1.03;;
635;SDS011;302;50.206;8.196;2023-03-24T10:32:18;1.08;;;0.77;;
635;SDS011;302;50.206;8.196;2023-03-24T10:34:46;1.35;;;0.80;;
635;SDS011;302;50.206;8.196;2023-03-24T10:37:12;1.27;;;0.80;;
635;SDS011;302;50.206;8.196;2023-03-24T10:39:38;1.27;;;0.87;;
635;SDS011;302;50.206;8.196;2023-03-24T10:42:03;2.70;;;1.20;;
635;SDS011;302;50.206;8.196;2023-03-24T10:44:29;2.33;;;1.08;;
635;SDS011;302;50.206;8.196;2023-03-24T10:46:55;1.10;;;1.00;;
635;SDS011;302;50.206;8.196;2023-03-24T10:49:22;1.80;;;1.08;;
635;SDS011;302;50.206;8.196;2023-03-24T10:51:48;1.60;;;0.80;;
635;SDS011;302;50.206;8.196;2023-03-24T10:54:15;1.33;;;0.80;;
635;SDS011;302;50.206;8.196;2023-03-24T10:56:41;1.75;;;1.00;;
635;SDS011;302;50.206;8.196;2023-03-24T11:01:49;2.55;;;1.42;;
635;SDS011;302;50.206;8.196;2023-03-24T11:04:16;1.85;;;1.13;;
635;SDS011;302;50.206;8.196;2023-03-24T11:07:43;1.50;;;1.10;;
635;SDS011;302;50.206;8.196;2023-03-24T11:09:37;1.98;;;1.20;;
635;SDS011;302;50.206;8.196;2023-03-24T11:12:03;1.42;;;0.93;;
635;SDS011;302;50.206;8.196;2023-03-24T11:14:29;1.63;;;0.70;;
635;SDS011;302;50.206;8.196;2023-03-24T11:17:11;2.40;;;0.97;;
635;SDS011;302;50.206;8.196;2023-03-24T11:19:36;1.23;;;0.90;;
635;SDS011;302;50.206;8.196;2023-03-24T11:22:02;0.90;;;0.70;;
635;SDS011;302;50.206;8.196;2023-03-24T11:24:29;2.15;;;1.10;;
635;SDS011;302;50.206;8.196;2023-03-24T11:26:59;2.33;;;1.13;;
635;SDS011;302;50.206;8.196;2023-03-24T11:29:26;1.85;;;0.88;;
635;SDS011;302;50.206;8.196;2023-03-24T11:31:55;1.63;;;1.05;;
635;SDS011;302;50.206;8.196;2023-03-24T11:34:23;1.92;;;1.10;;
635;SDS011;302;50.206;8.196;2023-03-24T11:36:59;2.35;;;1.23;;
635;SDS011;302;50.206;8.196;2023-03-24T11:39:26;1.40;;;0.90;;
635;SDS011;302;50.206;8.196;2023-03-24T11:41:59;1.90;;;1.02;;
635;SDS011;302;50.206;8.196;2023-03-24T11:44:25;1.00;;;0.70;;
635;SDS011;302;50.206;8.196;2023-03-24T11:47:02;1.95;;;1.38;;
635;SDS011;302;50.206;8.196;2023-03-24T11:49:29;1.45;;;1.35;;
635;SDS011;302;50.206;8.196;2023-03-24T11:51:55;2.20;;;0.95;;
635;SDS011;302;50.206;8.196;2023-03-24T11:54:26;1.33;;;0.90;;
635;SDS011;302;50.206;8.196;2023-03-24T11:56:57;1.30;;;0.93;;
635;SDS011;302;50.206;8.196;2023-03-24T11:59:27;3.70;;;0.90;;
635;SDS011;302;50.206;8.196;2023-03-24T12:02:00;1.13;;;1.00;;
635;SDS011;302;50.206;8.196;2023-03-24T12:07:12;1.52;;;0.80;;
635;SDS011;302;50.206;8.196;2023-03-24T12:09:58;1.10;;;0.90;;
635;SDS011;302;50.206;8.196;2023-03-24T12:15:05;1.60;;;1.40;;
635;SDS011;302;50.206;8.196;2023-03-24T12:17:35;1.20;;;0.95;;
635;SDS011;302;50.206;8.196;2023-03-24T12:20:25;1.88;;;1.08;;
635;SDS011;302;50.206;8.196;2023-03-24T12:23:16;1.60;;;1.00;;
635;SDS011;302;50.206;8.196;2023-03-24T12:56:40;3.83;;;1.55;;
635;SDS011;302;50.206;8.196;2023-03-24T12:59:12;1.00;;;0.80;;
635;SDS011;302;50.206;8.196;2023-03-24T13:01:40;1.30;;;1.20;;
635;SDS011;302;50.206;8.196;2023-03-24T13:04:09;2.35;;;1.50;;
635;SDS011;302;50.206;8.196;2023-03-24T13:12:15;2.75;;;0.95;;
635;SDS011;302;50.206;8.196;2023-03-24T13:14:21;1.73;;;0.83;;
635;SDS011;302;50.206;8.196;2023-03-24T13:16:49;1.27;;;0.73;;
635;SDS011;302;50.206;8.196;2023-03-24T13:19:21;1.30;;;0.80;;
635;SDS011;302;50.206;8.196;2023-03-24T13:21:47;1.05;;;0.80;;
635;SDS011;302;50.206;8.196;2023-03-24T13:24:13;1.63;;;1.00;;
635;SDS011;302;50.206;8.196;2023-03-24T13:32:03;2.53;;;1.05;;
635;SDS011;302;50.206;8.196;2023-03-24T13:36:58;1.73;;;1.25;;
635;SDS011;302;50.206;8.196;2023-03-24T13:39:25;1.45;;;0.90;;
635;SDS011;302;50.206;8.196;2023-03-24T13:41:52;2.15;;;1.02;;
635;SDS011;302;50.206;8.196;2023-03-24T13:46:42;1.50;;;0.90;;
635;SDS011;302;50.206;8.196;2023-03-24T13:49:16;2.00;;;1.00;;
635;SDS011;302;50.206;8.196;2023-03-24T13:51:43;2.33;;;1.00;;
635;SDS011;302;50.206;8.196;2023-03-24T13:54:13;2.60;;;0.80;;
635;SDS011;302;50.206;8.196;2023-03-24T13:56:41;2.90;;;1.00;;
635;SDS011;302;50.206;8.196;2023-03-24T13:59:25;2.10;;;1.00;;
635;SDS011;302;50.206;8.196;2023-03-24T14:02:09;1.60;;;0.87;;
635;SDS011;302;50.206;8.196;2023-03-24T14:04:44;1.30;;;0.90;;
635;SDS011;302;50.206;8.196;2023-03-24T14:07:24;2.47;;;0.90;;
635;SDS011;302;50.206;8.196;2023-03-24T14:09:56;2.20;;;1.30;;
635;SDS011;302;50.206;8.196;2023-03-24T14:12:22;2.73;;;0.90;;
635;SDS011;302;50.206;8.196;2023-03-24T14:17:31;3.40;;;1.47;;
635;SDS011;302;50.206;8.196;2023-03-24T14:22:31;1.00;;;0.67;;
635;SDS011;302;50.206;8.196;2023-03-24T14:24:58;1.87;;;1.00;;
635;SDS011;302;50.206;8.196;2023-03-24T14:27:30;1.17;;;0.80;;
635;SDS011;302;50.206;8.196;2023-03-24T14:29:58;1.47;;;0.60;;
635;SDS011;302;50.206;8.196;2023-03-24T14:32:24;2.13;;;0.87;;
635;SDS011;302;50.206;8.196;2023-03-24T14:34:56;2.53;;;0.90;;
635;SDS011;302;50.206;8.196;2023-03-24T14:37:22;2.43;;;1.57;;
635;SDS011;302;50.206;8.196;2023-03-24T14:39:48;1.33;;;0.85;;
635;SDS011;302;50.206;8.196;2023-03-24T14:42:27;1.70;;;0.98;;
635;SDS011;302;50.206;8.196;2023-03-24T14:47:49;2.85;;;0.82;;
635;SDS011;302;50.206;8.196;2023-03-24T14:50:21;2.03;;;0.95;;
635;SDS011;302;50.206;8.196;2023-03-24T14:52:48;1.20;;;0.70;;
635;SDS011;302;50.206;8.196;2023-03-24T14:55:15;2.10;;;0.63;;
635;SDS011;302;50.206;8.196;2023-03-24T14:57:44;2.07;;;0.80;;
635;SDS011;302;50.206;8.196;2023-03-24T15:00:17;1.63;;;0.80;;
635;SDS011;302;50.206;8.196;2023-03-24T15:02:54;3.80;;;1.13;;
635;SDS011;302;50.206;8.196;2023-03-24T15:10:35;1.97;;;0.83;;
635;SDS011;302;50.206;8.196;2023-03-24T15:13:02;3.10;;;0.60;;
635;SDS011;302;50.206;8.196;2023-03-24T15:15:27;2.43;;;0.67;;
635;SDS011;302;50.206;8.196;2023-03-24T15:17:52;1.90;;;0.63;;
635;SDS011;302;50.206;8.196;2023-03-24T15:20:25;2.57;;;0.80;;
635;SDS011;302;50.206;8.196;2023-03-24T15:22:50;1.47;;;0.90;;
635;SDS011;302;50.206;8.196;2023-03-24T15:25:19;1.90;;;0.90;;
635;SDS011;302;50.206;8.196;2023-03-24T15:27:48;3.43;;;1.10;;
635;SDS011;302;50.206;8.196;2023-03-24T15:30:15;1.73;;;0.70;;
635;SDS011;302;50.206;8.196;2023-03-24T15:32:40;1.33;;;0.90;;
635;SDS011;302;50.206;8.196;2023-03-24T15:35:14;1.10;;;0.70;;
635;SDS011;302;50.206;8.196;2023-03-24T15:37:40;4.20;;;1.00;;
635;SDS011;302;50.206;8.196;2023-03-24T15:42:54;2.13;;;1.00;;
635;SDS011;302;50.206;8.196;2023-03-24T15:45:21;1.77;;;0.93;;
635;SDS011;302;50.206;8.196;2023-03-24T15:47:49;2.40;;;1.00;;
635;SDS011;302;50.206;8.196;2023-03-24T15:50:28;1.20;;;0.80;;
635;SDS011;302;50.206;8.196;2023-03-24T15:52:58;1.43;;;0.83;;
635;SDS011;302;50.206;8.196;2023-03-24T15:55:31;1.73;;;1.43;;
635;SDS011;302;50.206;8.196;2023-03-24T15:57:58;2.13;;;1.60;;
635;SDS011;302;50.206;8.196;2023-03-24T16:00:36;1.57;;;1.00;;
635;SDS011;302;50.206;8.196;2023-03-24T16:03:03;1.60;;;0.93;;
635;SDS011;302;50.206;8.196;2023-03-24T16:05:29;3.40;;;0.90;;
635;SDS011;302;50.206;8.196;2023-03-24T16:07:56;2.80;;;1.20;;
635;SDS011;302;50.206;8.196;2023-03-24T16:10:26;4.73;;;1.30;;
635;SDS011;302;50.206;8.196;2023-03-24T16:12:52;1.27;;;0.67;;
635;SDS011;302;50.206;8.196;2023-03-24T16:15:18;1.50;;;0.80;;
635;SDS011;302;50.206;8.196;2023-03-24T16:17:43;3.00;;;1.00;;
635;SDS011;302;50.206;8.196;2023-03-24T16:20:18;1.67;;;0.60;;
635;SDS011;302;50.206;8.196;2023-03-24T16:22:44;2.60;;;1.10;;
635;SDS011;302;50.206;8.196;2023-03-24T16:25:10;1.30;;;1.00;;
635;SDS011;302;50.206;8.196;2023-03-24T16:27:36;1.67;;;0.80;;
635;SDS011;302;50.206;8.196;2023-03-24T16:30:01;1.63;;;0.97;;
635;SDS011;302;50.206;8.196;2023-03-24T16:32:26;1.93;;;0.70;;
635;SDS011;302;50.206;8.196;2023-03-24T16:34:52;1.48;;;0.70;;
635;SDS011;302;50.206;8.196;2023-03-24T16:37:17;1.92;;;0.70;;
635;SDS011;302;50.206;8.196;2023-03-24T16:39:42;2.13;;;1.00;;
635;SDS011;302;50.206;8.196;2023-03-24T16:42:07;2.50;;;0.80;;
635;SDS011;302;50.206;8.196;2023-03-24T16:44:33;1.40;;;0.80;;
635;SDS011;302;50.206;8.196;2023-03-24T16:46:58;2.27;;;0.80;;
635;SDS011;302;50.206;8.196;2023-03-24T16:49:23;1.40;;;0.90;;
635;SDS011;302;50.206;8.196;2023-03-24T16:51:49;2.30;;;0.80;;
635;SDS011;302;50.206;8.196;2023-03-24T16:54:14;2.00;;;1.00;;
635;SDS011;302;50.206;8.196;2023-03-24T16:56:40;1.33;;;1.10;;
635;SDS011;302;50.206;8.196;2023-03-24T16:59:05;1.63;;;0.80;;
635;SDS011;302;50.206;8.196;2023-03-24T17:01:40;1.60;;;0.50;;
635;SDS011;302;50.206;8.196;2023-03-24T17:04:07;1.53;;;0.80;;
635;SDS011;302;50.206;8.196;2023-03-24T17:06:36;2.78;;;0.90;;
635;SDS011;302;50.206;8.196;2023-03-24T17:09:02;1.65;;;1.10;;
635;SDS011;302;50.206;8.196;2023-03-24T17:11:51;1.95;;;0.80;;
635;SDS011;302;50.206;8.196;2023-03-24T17:14:15;1.48;;;0.80;;
635;SDS011;302;50.206;8.196;2023-03-24T17:16:41;1.50;;;1.10;;
635;SDS011;302;50.206;8.196;2023-03-24T17:19:13;1.30;;;0.80;;
635;SDS011;302;50.206;8.196;2023-03-24T17:21:59;1.30;;;0.80;;
635;SDS011;302;50.206;8.196;2023-03-24T17:24:24;3.85;;;0.90;;
635;SDS011;302;50.206;8.196;2023-03-24T17:26:49;3.23;;;1.70;;
635;SDS011;302;50.206;8.196;2023-03-24T17:29:15;1.43;;;0.90;;
635;SDS011;302;50.206;8.196;2023-03-24T17:31:40;1.23;;;0.80;;
635;SDS011;302;50.206;8.196;2023-03-24T17:34:08;3.67;;;1.30;;
635;SDS011;302;50.206;8.196;2023-03-24T17:36:34;1.70;;;0.82;;
635;SDS011;302;50.206;8.196;2023-03-24T17:39:00;1.53;;;1.00;;
635;SDS011;302;50.206;8.196;2023-03-24T17:41:25;3.33;;;0.80;;
635;SDS011;302;50.206;8.196;2023-03-24T17:43:51;8.90;;;7.10;;
635;SDS011;302;50.206;8.196;2023-03-24T17:46:16;9.60;;;7.50;;
635;SDS011;302;50.206;8.196;2023-03-24T17:48:41;6.67;;;4.20;;
635;SDS011;302;50.206;8.196;2023-03-24T17:51:06;3.97;;;3.13;;
635;SDS011;302;50.206;8.196;2023-03-24T17:53:31;1.63;;;1.30;;